Time;durP1;ratioP1;P1;durP2;ratioP2;P2;SDS_P1;SDS_P2;PMS_P1;PMS_P2;Temp;Humidity;BMP_temperature;BMP_pressure;BME280_temperature;BME280_humidity;BME280_pressure;Samples;Min_cycle;Max_cycle;Signal;HPM_P1;HPM_P2
2023/05/23 00:00:57;;;;;;;;;29.00;25.75;;;;;17.86;67.75;101565.66;4887249;29;45543;-64
2023/05/23 00:03:23;;;;;;;;;30.25;27.00;;;;;17.90;68.35;101575.41;4883026;29;45791;-64
2023/05/23 00:05:50;;;;;;;;;27.00;25.25;;;;;17.96;68.00;101591.31;4884312;29;45507;-64
2023/05/23 00:08:16;;;;;;;;;32.00;28.25;;;;;17.90;68.36;101587.09;4884931;29;45544;-64
2023/05/23 00:10:42;;;;;;;;;32.50;28.50;;;;;17.85;68.07;101581.00;4888087;29;45538;-64
2023/05/23 00:13:11;;;;;;;;;25.75;22.50;;;;;17.76;67.85;101565.28;4881656;29;45761;-64
2023/05/23 00:15:40;;;;;;;;;26.25;21.50;;;;;17.75;67.90;101566.22;4877960;29;48005;-64
2023/05/23 00:18:07;;;;;;;;;27.25;25.00;;;;;17.80;68.01;101563.28;4884212;29;45663;-64
2023/05/23 00:20:35;;;;;;;;;25.50;22.25;;;;;17.78;67.94;101566.06;4883760;29;45340;-64
2023/05/23 00:23:02;;;;;;;;;26.00;23.75;;;;;17.76;67.61;101558.03;4878850;29;45537;-64
2023/05/23 00:25:32;;;;;;;;;30.50;26.50;;;;;17.64;68.19;101542.47;4880342;29;45651;-64
2023/05/23 00:28:07;;;;;;;;;28.25;26.50;;;;;17.66;67.79;101548.66;4876903;29;45934;-64
2023/05/23 00:30:33;;;;;;;;;25.50;24.50;;;;;17.57;67.98;101535.59;4883990;29;45409;-64
2023/05/23 00:32:59;;;;;;;;;21.50;20.25;;;;;17.80;67.94;101579.50;4876011;29;45567;-64
2023/05/23 00:35:25;;;;;;;;;26.50;23.00;;;;;17.72;68.28;101572.63;4883860;29;45908;-64
2023/05/23 00:37:51;;;;;;;;;24.50;24.50;;;;;17.76;68.21;101573.38;4882278;29;45470;-64
2023/05/23 00:40:17;;;;;;;;;33.00;28.50;;;;;17.60;68.08;101548.94;4882722;29;45514;-64
2023/05/23 00:42:43;;;;;;;;;24.25;24.25;;;;;17.73;68.27;101574.38;4879777;29;45756;-64
2023/05/23 00:45:08;;;;;;;;;28.75;27.25;;;;;17.73;67.59;101571.69;4883820;29;45827;-64
2023/05/23 00:47:34;;;;;;;;;26.25;24.75;;;;;17.71;67.68;101567.31;4881636;29;45562;-64
2023/05/23 00:49:59;;;;;;;;;27.00;25.00;;;;;17.64;68.09;101568.56;4880981;29;45493;-64
2023/05/23 00:52:25;;;;;;;;;25.00;22.25;;;;;17.64;68.08;101571.25;4873790;29;45743;-64
2023/05/23 00:54:50;;;;;;;;;26.00;25.00;;;;;17.62;67.71;101574.03;4883268;29;45459;-64
2023/05/23 00:57:16;;;;;;;;;25.50;23.25;;;;;17.64;67.88;101580.25;4866074;29;45543;-64
2023/05/23 00:59:44;;;;;;;;;28.25;26.00;;;;;17.58;67.73;101564.34;4882185;29;45548;-64
2023/05/23 01:02:11;;;;;;;;;28.00;25.00;;;;;17.58;67.91;101559.81;4881221;29;45624;-64
2023/05/23 01:04:37;;;;;;;;;24.50;22.00;;;;;17.56;67.91;101563.56;4888678;29;47896;-64
2023/05/23 01:07:03;;;;;;;;;22.50;21.00;;;;;17.56;67.73;101566.25;4883134;29;45315;-64
2023/05/23 01:09:29;;;;;;;;;24.50;21.75;;;;;17.57;67.56;101567.97;4883537;29;45384;-64
2023/05/23 01:11:54;;;;;;;;;23.50;20.25;;;;;17.61;67.74;101566.91;4883191;29;45585;-64
2023/05/23 01:14:34;;;;;;;;;18.75;18.00;;;;;17.59;67.25;101569.66;4881206;29;47440;-64
2023/05/23 01:17:17;;;;;;;;;21.50;20.00;;;;;17.37;67.28;101550.94;4882509;29;45434;-64
2023/05/23 01:20:03;;;;;;;;;22.50;20.75;;;;;17.50;67.62;101572.81;4875692;29;45472;-64
2023/05/23 01:22:48;;;;;;;;;26.25;25.00;;;;;17.51;67.39;101573.69;4875564;29;45529;-63
2023/05/23 01:25:31;;;;;;;;;22.50;20.75;;;;;17.51;67.43;101576.41;4883010;29;46456;-64
2023/05/23 01:28:02;;;;;;;;;24.75;21.75;;;;;17.40;67.08;101580.47;4876997;29;45426;-64
2023/05/23 01:30:31;;;;;;;;;27.00;22.25;;;;;17.40;66.62;101572.38;4882618;29;45626;-64
2023/05/23 01:32:59;;;;;;;;;20.00;18.00;;;;;17.29;67.17;101569.31;4883244;29;45511;-63
2023/05/23 01:35:26;;;;;;;;;24.25;24.25;;;;;17.04;67.41;101548.03;4882898;29;45361;-64
2023/05/23 01:37:53;;;;;;;;;28.25;26.25;;;;;17.24;67.40;101579.47;4883087;29;45593;-64
2023/05/23 01:40:18;;;;;;;;;31.25;26.25;;;;;17.30;67.32;101589.94;4883229;29;45319;-64
2023/05/23 01:42:44;;;;;;;;;28.25;25.50;;;;;17.27;67.64;101592.78;4881293;29;45583;-64
2023/05/23 01:45:11;;;;;;;;;32.50;30.00;;;;;17.23;67.63;101588.50;4882880;29;46472;-64
2023/05/23 01:47:38;;;;;;;;;22.00;21.00;;;;;17.17;67.93;101586.97;4882258;29;45654;-64
2023/05/23 01:50:05;;;;;;;;;27.00;23.00;;;;;16.94;67.95;101557.47;4880866;29;45505;-64
2023/05/23 01:52:30;;;;;;;;;24.00;21.50;;;;;17.09;68.26;101577.47;4876191;29;45545;-64
2023/05/23 01:54:58;;;;;;;;;22.50;19.75;;;;;17.04;67.97;101589.34;4880917;29;47263;-64
2023/05/23 01:57:25;;;;;;;;;28.25;22.50;;;;;16.98;67.77;101588.75;4878077;29;45483;-64
2023/05/23 01:59:50;;;;;;;;;24.00;22.25;;;;;17.01;67.94;101600.28;4879327;29;45451;-64
2023/05/23 02:02:16;;;;;;;;;23.50;22.25;;;;;16.92;67.95;101584.50;4883618;29;45428;-64
2023/05/23 02:04:41;;;;;;;;;20.25;19.00;;;;;16.91;68.42;101584.59;4882303;29;46655;-64
2023/05/23 02:07:07;;;;;;;;;22.50;22.00;;;;;16.97;68.34;101595.97;4869343;29;45528;-64
2023/05/23 02:09:32;;;;;;;;;25.50;21.00;;;;;16.98;68.50;101603.09;4877835;29;45424;-64
2023/05/23 02:11:58;;;;;;;;;23.00;22.00;;;;;16.85;68.09;101592.00;4883329;29;45401;-64
2023/05/23 02:14:25;;;;;;;;;23.25;21.75;;;;;16.61;68.41;101540.03;4885613;29;46700;-64
2023/05/23 02:16:51;;;;;;;;;21.25;20.00;;;;;16.84;68.39;101587.56;4881246;29;45489;-63
2023/05/23 02:19:16;;;;;;;;;17.50;17.50;;;;;16.63;68.68;101556.13;4879457;29;45268;-63
2023/05/23 02:21:44;;;;;;;;;26.00;20.25;;;;;16.65;68.73;101582.06;4887788;29;47069;-64
2023/05/23 02:24:10;;;;;;;;;27.25;24.75;;;;;16.62;68.60;101587.63;4880394;29;46113;-64
2023/05/23 02:26:35;;;;;;;;;28.50;23.00;;;;;16.73;68.94;101607.84;4878915;29;45460;-63
2023/05/23 02:29:01;;;;;;;;;23.25;22.75;;;;;16.69;68.84;101601.72;4880828;29;45725;-63
2023/05/23 02:31:26;;;;;;;;;24.00;23.00;;;;;16.66;69.26;101600.00;4885753;29;45532;-64
2023/05/23 02:33:52;;;;;;;;;26.25;22.50;;;;;16.60;69.12;101583.22;4884319;29;47847;-64
2023/05/23 02:36:18;;;;;;;;;27.50;24.25;;;;;16.75;69.04;101604.09;4885194;29;45396;-63
2023/05/23 02:38:43;;;;;;;;;28.75;24.75;;;;;16.54;69.48;101568.22;4884300;29;45574;-63
2023/05/23 02:41:08;;;;;;;;;26.75;25.75;;;;;16.77;69.49;101593.25;4885386;29;45367;-63
2023/05/23 02:43:34;;;;;;;;;27.50;23.50;;;;;16.66;69.47;101578.44;4884124;29;47373;-64
2023/05/23 02:45:59;;;;;;;;;26.00;26.00;;;;;16.72;69.26;101587.19;4884152;29;45373;-63
2023/05/23 02:48:25;;;;;;;;;32.50;26.75;;;;;16.81;69.33;101600.28;4885175;29;45305;-64
2023/05/23 02:50:50;;;;;;;;;28.50;24.75;;;;;16.82;69.13;101604.72;4882550;29;45568;-63
2023/05/23 02:53:15;;;;;;;;;23.00;21.00;;;;;16.79;69.37;101600.34;4884843;29;45455;-64
2023/05/23 02:55:41;;;;;;;;;25.75;22.25;;;;;16.78;69.17;101592.31;4868364;29;45298;-63
2023/05/23 02:58:07;;;;;;;;;24.00;22.00;;;;;16.71;69.55;101583.63;4884472;29;45487;-64
2023/05/23 03:00:33;;;;;;;;;25.00;23.75;;;;;16.66;69.22;101586.53;4875529;29;45467;-64
2023/05/23 03:02:58;;;;;;;;;30.00;23.00;;;;;16.67;69.27;101600.88;4885190;29;45608;-63
2023/05/23 03:05:24;;;;;;;;;24.75;23.25;;;;;16.47;69.29;101569.41;4884786;29;45271;-64
2023/05/23 03:07:51;;;;;;;;;27.50;26.25;;;;;16.67;69.33;101607.16;4885040;29;45355;-63
2023/05/23 03:10:17;;;;;;;;;23.50;23.25;;;;;16.65;69.65;101619.81;4883579;29;45420;-64
2023/05/23 03:12:42;;;;;;;;;28.75;27.25;;;;;16.45;69.27;101587.47;4883447;29;47765;-64
2023/05/23 03:15:09;;;;;;;;;22.00;20.25;;;;;16.48;69.23;101587.34;4878129;29;45527;-64
2023/05/23 03:17:34;;;;;;;;;28.25;25.25;;;;;16.52;69.34;101604.25;4884851;29;45581;-64
2023/05/23 03:20:00;;;;;;;;;25.25;23.50;;;;;16.49;69.35;101595.34;4882907;29;45321;-63
2023/05/23 03:22:25;;;;;;;;;22.00;20.00;;;;;16.52;69.56;101609.63;4894209;28;47181;-64
2023/05/23 03:24:50;;;;;;;;;22.00;22.00;;;;;16.35;69.78;101573.50;4883620;29;45367;-63
2023/05/23 03:27:16;;;;;;;;;34.50;29.25;;;;;16.24;69.86;101571.31;4884511;29;45482;-63
2023/05/23 03:29:41;;;;;;;;;29.50;25.50;;;;;16.42;70.33;101614.53;4884660;29;45572;-64
2023/05/23 03:32:07;;;;;;;;;28.50;27.00;;;;;16.41;70.35;101618.19;4884363;29;45312;-64
2023/05/23 03:34:33;;;;;;;;;28.75;27.75;;;;;16.37;70.24;101625.53;4882435;29;45440;-64
2023/05/23 03:36:58;;;;;;;;;28.00;25.25;;;;;16.39;70.05;101625.44;4884565;29;45276;-64
2023/05/23 03:39:24;;;;;;;;;27.75;26.00;;;;;16.18;70.18;101606.56;4884817;29;45255;-64
2023/05/23 03:41:52;;;;;;;;;27.00;25.75;;;;;16.26;70.19;101633.19;4884165;29;45509;-64
2023/05/23 03:44:17;;;;;;;;;26.75;24.25;;;;;16.08;70.16;101618.66;4884791;29;45660;-63
2023/05/23 03:46:45;;;;;;;;;28.75;26.75;;;;;16.07;70.24;101619.59;4884442;29;45477;-64
2023/05/23 03:49:10;;;;;;;;;26.75;25.50;;;;;16.11;70.25;101645.47;4878374;29;45414;-63
2023/05/23 03:51:35;;;;;;;;;32.25;27.25;;;;;15.97;70.58;101634.38;4879165;29;47986;-64
2023/05/23 03:54:01;;;;;;;;;35.00;31.00;;;;;15.93;71.24;101636.34;4882910;29;45498;-63
2023/05/23 03:56:26;;;;;;;;;25.25;23.25;;;;;15.81;71.27;101616.16;4884285;29;45476;-63
2023/05/23 03:58:52;;;;;;;;;31.00;26.00;;;;;15.87;72.01;101629.41;4884294;29;45542;-63
2023/05/23 04:01:17;;;;;;;;;33.25;30.25;;;;;15.72;71.46;101603.06;4882787;29;46753;-64
2023/05/23 04:03:42;;;;;;;;;33.50;30.25;;;;;15.91;71.65;101647.16;4887402;29;45385;-63
2023/05/23 04:06:08;;;;;;;;;27.25;24.75;;;;;15.82;71.58;101627.81;4885624;28;45350;-63
2023/05/23 04:08:34;;;;;;;;;23.75;23.75;;;;;15.76;71.23;101628.06;4884319;29;45420;-63
2023/05/23 04:11:00;;;;;;;;;30.25;28.50;;;;;15.86;71.19;101654.56;4884042;29;45562;-63
2023/05/23 04:13:26;;;;;;;;;25.25;23.25;;;;;15.71;71.38;101612.94;4884184;29;45548;-64
2023/05/23 04:15:54;;;;;;;;;33.50;30.50;;;;;15.76;71.53;101633.47;4881735;29;46477;-64
2023/05/23 04:18:20;;;;;;;;;28.25;26.75;;;;;15.76;71.39;101636.16;4883905;29;45580;-64
2023/05/23 04:20:46;;;;;;;;;28.25;27.25;;;;;15.90;71.36;101663.38;4878878;29;46318;-63
2023/05/23 04:23:12;;;;;;;;;37.25;30.00;;;;;15.89;71.41;101661.66;4883732;29;45308;-64
2023/05/23 04:25:38;;;;;;;;;33.25;30.75;;;;;15.81;71.82;101658.38;4882569;29;45392;-63
2023/05/23 04:28:04;;;;;;;;;29.75;28.75;;;;;15.70;71.57;101639.91;4881930;29;45718;-64
2023/05/23 04:30:30;;;;;;;;;29.75;26.50;;;;;15.72;71.34;101648.81;4882455;29;46954;-64
2023/05/23 04:32:57;;;;;;;;;32.00;28.25;;;;;15.73;71.73;101664.00;4879827;29;45564;-64
2023/05/23 04:35:22;;;;;;;;;30.00;28.25;;;;;15.59;71.89;101647.56;4881670;29;45388;-63
2023/05/23 04:37:47;;;;;;;;;30.75;29.50;;;;;15.59;71.67;101656.50;4883873;29;45455;-63
2023/05/23 04:40:13;;;;;;;;;28.50;28.25;;;;;15.61;71.80;101662.69;4883732;29;46122;-63
2023/05/23 04:42:41;;;;;;;;;23.50;22.25;;;;;15.54;72.32;101661.19;4882866;29;45600;-63
2023/05/23 04:45:08;;;;;;;;;27.25;24.00;;;;;15.56;72.46;101670.06;4883895;29;45424;-64
2023/05/23 04:47:33;;;;;;;;;26.50;23.25;;;;;15.43;72.38;101652.63;4883568;29;45410;-64
2023/05/23 04:51:10;;;;;;;;;;;;;;;;;;;;;
2023/05/23 05:46:51;;;;;;;;;22.50;21.25;;;;;15.36;73.22;101660.94;5592415;23;47532;-66
2023/05/23 05:49:17;;;;;;;;;26.75;21.75;;;;;15.25;73.74;101673.03;4863916;29;45406;-66
2023/05/23 05:51:42;;;;;;;;;18.75;18.00;;;;;15.28;74.05;101670.22;4856686;29;45871;-65
2023/05/23 05:54:08;;;;;;;;;21.25;16.50;;;;;15.50;73.83;101705.25;4848219;29;45640;-65
2023/05/23 05:56:35;;;;;;;;;19.50;18.50;;;;;15.46;73.95;101696.44;4854633;29;45914;-65
2023/05/23 05:59:01;;;;;;;;;20.50;18.50;;;;;15.34;73.80;101672.69;4852908;29;45376;-65
2023/05/23 06:01:26;;;;;;;;;18.00;17.25;;;;;15.35;73.63;101678.03;4857977;29;45569;-65
2023/05/23 06:03:52;;;;;;;;;20.25;18.75;;;;;15.33;73.77;101684.38;4851191;29;46301;-65
2023/05/23 06:06:18;;;;;;;;;15.75;15.75;;;;;15.38;74.11;101683.28;4854565;29;46978;-65
2023/05/23 06:08:44;;;;;;;;;22.00;17.25;;;;;15.40;73.83;101685.91;4854683;29;45349;-65
2023/05/23 06:11:11;;;;;;;;;17.00;16.25;;;;;15.41;73.89;101684.09;4847745;29;45452;-65
2023/05/23 06:13:37;;;;;;;;;17.75;16.50;;;;;15.42;73.65;101681.34;4856047;29;45850;-65
2023/05/23 06:16:07;;;;;;;;;17.75;17.25;;;;;15.49;73.81;101679.31;4849565;29;47169;-65
2023/05/23 06:18:33;;;;;;;;;18.00;17.00;;;;;15.40;73.66;101667.06;4855014;29;45634;-65
2023/05/23 06:20:59;;;;;;;;;20.75;18.00;;;;;15.65;74.02;101714.56;4853690;29;45335;-65
2023/05/23 06:23:24;;;;;;;;;19.25;18.00;;;;;15.38;73.65;101667.16;4858841;29;45879;-65
2023/05/23 06:25:52;;;;;;;;;18.00;16.25;;;;;15.43;73.93;101682.22;4861062;29;48148;-65
2023/05/23 06:28:17;;;;;;;;;21.00;20.75;;;;;15.41;73.94;101676.03;4849414;29;46089;-65
2023/05/23 06:30:45;;;;;;;;;18.50;17.50;;;;;15.44;73.88;101684.88;4850171;29;45790;-65
2023/05/23 06:33:13;;;;;;;;;16.00;16.00;;;;;15.64;74.39;101718.22;4861424;29;45495;-65
2023/05/23 06:35:38;;;;;;;;;22.25;19.00;;;;;15.53;73.70;101695.25;4859335;29;48693;-65
2023/05/23 06:38:14;;;;;;;;;;;;;;;;;;;;;
2023/05/23 06:40:42;;;;;;;;;21.50;19.00;;;;;15.64;74.18;101713.72;4854232;29;68698;-65
2023/05/23 06:43:08;;;;;;;;;15.25;14.25;;;;;15.65;74.30;101706.50;4853031;29;45675;-65
2023/05/23 06:45:51;;;;;;;;;;;;;;;;;;;;;
2023/05/23 06:48:28;;;;;;;;;21.75;17.00;;;;;15.55;74.02;101709.56;4856253;29;72982;-65
2023/05/23 06:51:03;;;;;;;;;17.75;16.75;;;;;15.68;74.24;101744.94;4861572;29;45410;-65
2023/05/23 06:53:31;;;;;;;;;23.25;19.25;;;;;15.49;74.66;101711.59;4853065;29;45392;-65
2023/05/23 06:56:06;;;;;;;;;21.75;21.50;;;;;15.44;74.92;101717.16;4853122;29;46390;-65
2023/05/23 06:58:32;;;;;;;;;20.75;20.50;;;;;15.37;74.65;101712.94;4857021;29;46568;-65
2023/05/23 07:00:57;;;;;;;;;18.50;17.50;;;;;15.56;74.81;101737.34;4860329;29;45264;-65
2023/05/23 07:03:28;;;;;;;;;20.00;18.75;;;;;15.48;74.93;101728.66;4854665;29;45791;-66
2023/05/23 07:05:54;;;;;;;;;21.75;19.50;;;;;15.34;74.76;101719.28;4850767;29;45572;-66
2023/05/23 07:26:26;;;;;;;;;19.00;17.50;;;;;15.50;75.11;101759.09;5461005;23;47315;-81
2023/05/23 07:28:51;;;;;;;;;21.50;19.75;;;;;15.52;74.92;101768.00;4857425;29;45390;-81
2023/05/23 07:31:17;;;;;;;;;23.75;23.75;;;;;15.60;75.22;101776.63;4849255;29;45540;-81
2023/05/23 07:33:42;;;;;;;;;20.50;19.50;;;;;15.59;75.19;101768.66;4846101;29;45424;-81
2023/05/23 07:36:08;;;;;;;;;23.25;20.00;;;;;15.57;74.91;101771.41;4845752;29;46577;-81
2023/05/23 07:38:33;;;;;;;;;22.00;20.00;;;;;15.62;75.26;101782.88;4845248;29;45411;-80
2023/05/23 07:40:58;;;;;;;;;16.00;15.50;;;;;15.66;75.11;101780.94;4861572;29;45333;-80
2023/05/23 07:43:23;;;;;;;;;21.50;20.75;;;;;15.66;75.12;101780.94;4843501;29;49377;-80
2023/05/23 07:45:49;;;;;;;;;25.75;24.25;;;;;15.61;74.50;101778.41;4845824;29;45463;-80
2023/05/23 07:48:14;;;;;;;;;28.75;23.75;;;;;15.62;74.93;101784.66;4845960;29;45526;-80
2023/05/23 07:50:40;;;;;;;;;24.75;21.00;;;;;15.59;75.12;101791.06;4838442;29;45775;-80
2023/05/23 07:53:05;;;;;;;;;21.25;20.25;;;;;15.51;74.93;101772.47;4845664;29;45532;-80
2023/05/23 07:55:31;;;;;;;;;24.50;23.75;;;;;15.60;75.21;101789.22;4845996;29;45854;-80
2023/05/23 07:57:56;;;;;;;;;20.25;19.25;;;;;15.54;75.20;101782.28;4844175;29;45370;-80
2023/05/23 08:00:21;;;;;;;;;25.50;22.50;;;;;15.59;75.25;101787.50;4845297;29;45384;-80
2023/05/23 08:02:47;;;;;;;;;22.25;21.75;;;;;15.63;75.05;101797.19;4844447;29;45457;-80
2023/05/23 08:05:12;;;;;;;;;24.75;22.25;;;;;15.65;75.31;101795.31;4845530;29;45455;-81
2023/05/23 08:07:37;;;;;;;;;21.25;21.25;;;;;15.65;75.13;101793.53;4844150;29;45327;-81
2023/05/23 08:10:03;;;;;;;;;17.75;17.75;;;;;15.57;74.87;101788.41;4843618;29;45398;-81
2023/05/23 08:12:28;;;;;;;;;23.25;22.00;;;;;15.65;74.78;101789.94;4848136;29;45374;-81
2023/05/23 08:14:54;;;;;;;;;17.75;16.00;;;;;15.61;75.02;101788.31;4844554;29;46058;-81
2023/05/23 08:17:19;;;;;;;;;21.75;18.75;;;;;15.66;74.67;101799.78;4844697;29;45414;-81
2023/05/23 08:19:44;;;;;;;;;22.25;18.25;;;;;15.61;75.14;101793.69;4843951;29;45476;-79
2023/05/23 08:22:10;;;;;;;;;20.00;18.75;;;;;15.65;75.55;101801.59;4843958;29;45482;-79
2023/05/23 08:24:35;;;;;;;;;19.50;17.75;;;;;15.61;75.02;101782.94;4844329;29;45538;-79
2023/05/23 08:27:00;;;;;;;;;18.50;17.00;;;;;15.73;75.13;101804.84;4844096;29;45399;-79
2023/05/23 08:29:27;;;;;;;;;21.25;21.25;;;;;15.75;75.06;101799.41;4845336;29;45329;-79
2023/05/23 08:31:52;;;;;;;;;19.00;18.00;;;;;15.75;74.79;101796.72;4844329;29;45288;-79
2023/05/23 08:34:17;;;;;;;;;25.00;20.25;;;;;15.80;75.03;101802.84;4844578;29;45482;-80
2023/05/23 08:36:43;;;;;;;;;17.50;16.50;;;;;15.86;74.34;101809.84;4843664;29;45267;-79
2023/05/23 08:39:08;;;;;;;;;19.00;17.50;;;;;15.86;74.10;101802.63;4844975;29;45347;-79
2023/05/23 08:41:34;;;;;;;;;19.25;17.00;;;;;15.90;74.27;101816.84;4843854;29;45377;-79
2023/05/23 08:44:00;;;;;;;;;16.50;14.25;;;;;15.89;73.91;101807.03;4843771;29;48423;-79
2023/05/23 08:46:26;;;;;;;;;20.75;18.50;;;;;15.86;74.14;101808.00;4845224;29;45516;-79
2023/05/23 08:48:54;;;;;;;;;18.75;17.50;;;;;15.90;74.27;101817.75;4845007;29;45469;-79
2023/05/23 08:51:26;;;;;;;;;19.00;18.00;;;;;15.92;74.38;101820.34;4842783;29;45434;-80
2023/05/23 08:53:52;;;;;;;;;20.75;19.00;;;;;15.94;74.47;101810.44;4843889;29;45442;-79
2023/05/23 08:56:19;;;;;;;;;16.50;16.50;;;;;15.92;74.25;101805.09;4843664;29;45474;-79
2023/05/23 08:58:46;;;;;;;;;18.50;17.75;;;;;16.00;74.45;101804.78;4843587;29;45333;-79
2023/05/23 09:01:12;;;;;;;;;19.75;18.75;;;;;16.06;74.33;101814.47;4842368;29;45618;-81
2023/05/23 09:03:39;;;;;;;;;19.75;19.75;;;;;16.05;74.40;101797.41;4843724;29;45284;-81
2023/05/23 09:06:09;;;;;;;;;24.00;22.00;;;;;16.10;74.54;101805.31;4843671;29;45400;-81
2023/05/23 09:08:35;;;;;;;;;17.75;16.00;;;;;16.15;74.34;101810.53;4845511;29;45496;-81
2023/05/23 09:11:02;;;;;;;;;20.75;19.75;;;;;16.22;74.37;101821.03;4844454;29;45284;-80
2023/05/23 09:13:30;;;;;;;;;15.25;14.00;;;;;16.25;74.65;101828.09;4843827;29;45624;-80
2023/05/23 09:16:01;;;;;;;;;24.75;20.50;;;;;16.32;74.19;101821.50;4838839;29;46630;-81
2023/05/23 09:18:32;;;;;;;;;19.25;15.50;;;;;16.36;73.96;101825.00;4842473;29;45418;-80
2023/05/23 09:20:57;;;;;;;;;26.00;24.50;;;;;16.30;73.76;101820.69;4842128;29;45444;-80
2023/05/23 09:23:23;;;;;;;;;19.75;19.50;;;;;16.30;73.85;101818.00;4844067;29;45483;-81
2023/05/23 09:25:48;;;;;;;;;26.75;23.50;;;;;16.32;73.91;101824.22;4844405;29;45392;-81
2023/05/23 09:28:14;;;;;;;;;15.75;15.50;;;;;16.17;73.57;101811.34;4844775;29;46053;-81
2023/05/23 09:30:39;;;;;;;;;23.75;22.00;;;;;16.18;74.49;101819.38;4858395;29;46775;-81
2023/05/23 09:33:05;;;;;;;;;25.50;23.00;;;;;16.20;74.73;101820.19;4842638;29;48164;-81
2023/05/23 09:35:30;;;;;;;;;26.00;21.75;;;;;16.22;74.68;101828.22;4844649;29;45454;-81
2023/05/23 09:37:58;;;;;;;;;19.25;19.00;;;;;16.16;74.76;101829.34;4844498;29;45587;-81
2023/05/23 09:40:30;;;;;;;;;25.25;23.75;;;;;16.13;74.62;101825.88;4845135;29;45628;-81
2023/05/23 09:43:01;;;;;;;;;25.75;25.75;;;;;16.09;74.79;101823.31;4845248;29;45466;-81
2023/05/23 09:45:31;;;;;;;;;19.25;16.50;;;;;16.16;74.84;101821.25;4845142;29;45673;-81
2023/05/23 09:47:57;;;;;;;;;28.25;25.50;;;;;16.16;74.74;101818.56;4839312;29;45618;-82
2023/05/23 09:50:23;;;;;;;;;30.00;25.75;;;;;16.15;74.64;101811.41;4845804;29;45403;-82
2023/05/23 09:52:50;;;;;;;;;25.25;25.25;;;;;16.26;74.36;101825.34;4845799;29;46441;-83
2023/05/23 09:55:15;;;;;;;;;27.25;24.75;;;;;16.23;74.03;101813.81;4845622;29;45760;-82
2023/05/23 09:57:42;;;;;;;;;22.25;21.75;;;;;16.22;74.01;101814.75;4844591;29;45293;-82
2023/05/23 10:00:12;;;;;;;;;25.75;23.00;;;;;16.19;74.09;101823.84;4842464;29;45434;-82
2023/05/23 10:03:02;;;;;;;;;27.00;23.75;;;;;16.23;74.35;101825.44;4845154;29;45318;-82
2023/05/23 10:05:42;;;;;;;;;25.50;23.75;;;;;16.21;74.18;101824.66;4844627;29;45503;-82
2023/05/23 10:08:12;;;;;;;;;25.25;23.50;;;;;16.15;74.42;101818.63;4837718;29;45379;-82
2023/05/23 10:11:12;;;;;;;;;23.50;23.50;;;;;16.28;74.53;101833.38;4845146;29;45351;-82
2023/05/23 10:13:42;;;;;;;;;19.00;17.25;;;;;16.30;73.92;101827.00;4844609;29;45449;-83
2023/05/23 10:16:27;;;;;;;;;21.75;20.75;;;;;16.34;73.82;101821.47;4844611;29;45498;-82
2023/05/23 10:18:58;;;;;;;;;13.75;12.75;;;;;16.29;73.11;101814.44;4822161;29;45416;-82
2023/05/23 10:21:31;;;;;;;;;20.50;18.50;;;;;16.35;73.04;101820.53;4844800;29;45722;-82
2023/05/23 10:23:58;;;;;;;;;18.00;16.75;;;;;16.30;73.13;101813.53;4847642;29;48304;-82
2023/05/23 10:26:26;;;;;;;;;19.25;18.00;;;;;16.40;73.05;101816.69;4846811;29;45613;-82
2023/05/23 10:28:53;;;;;;;;;19.25;18.00;;;;;16.42;72.92;101820.25;4848266;29;45527;-83
2023/05/23 10:31:19;;;;;;;;;12.50;12.00;;;;;16.54;72.67;101834.13;4847966;29;45743;-82
2023/05/23 10:34:11;;;;;;;;;17.00;14.75;;;;;16.56;72.43;101821.50;4851206;29;46321;-83
2023/05/23 10:36:47;;;;;;;;;19.25;15.00;;;;;16.54;72.27;101813.47;4847412;29;45435;-83
2023/05/23 10:39:48;;;;;;;;;20.75;18.50;;;;;16.67;71.64;101841.69;4847601;29;45299;-82
2023/05/23 10:42:27;;;;;;;;;19.00;17.50;;;;;16.62;71.66;101841.00;4847596;29;45308;-82
2023/05/23 10:44:52;;;;;;;;;19.00;17.75;;;;;16.57;71.77;101831.31;4847289;29;45628;-82
2023/05/23 10:47:29;;;;;;;;;21.00;19.25;;;;;16.53;71.75;101821.63;4847964;29;45406;-82
2023/05/23 10:49:55;;;;;;;;;22.75;19.75;;;;;16.54;71.85;101826.97;4863122;29;45333;-83
2023/05/23 10:52:25;;;;;;;;;19.25;16.25;;;;;16.61;72.25;101836.53;4849091;29;45967;-82
2023/05/23 10:54:53;;;;;;;;;21.00;20.00;;;;;16.62;71.97;101830.22;4848231;29;45347;-82
2023/05/23 10:57:20;;;;;;;;;24.50;21.75;;;;;16.62;71.95;101832.91;4847819;29;45660;-82
2023/05/23 10:59:49;;;;;;;;;17.25;16.75;;;;;16.62;71.80;101843.69;4824662;29;46683;-82
2023/05/23 11:02:17;;;;;;;;;18.50;18.50;;;;;16.61;71.98;101827.59;4848195;29;45651;-82
2023/05/23 11:04:43;;;;;;;;;21.50;20.75;;;;;16.56;71.46;101826.91;4847631;29;48852;-82
2023/05/23 11:07:29;;;;;;;;;22.75;21.00;;;;;16.57;71.32;101815.16;4848001;29;45334;-82
2023/05/23 11:10:12;;;;;;;;;23.25;20.75;;;;;16.63;71.49;101823.88;4826442;29;45462;-83
2023/05/23 11:12:41;;;;;;;;;20.00;18.25;;;;;16.65;71.25;101824.69;4846476;29;45405;-82
2023/05/23 11:15:24;;;;;;;;;22.25;18.75;;;;;16.60;71.86;101815.03;4846479;29;45436;-82
2023/05/23 11:17:54;;;;;;;;;21.50;19.75;;;;;16.68;71.59;101827.25;4846756;29;45538;-83
2023/05/23 11:20:27;;;;;;;;;17.00;17.00;;;;;16.71;71.53;101806.53;4842023;29;45372;-82
2023/05/23 11:23:07;;;;;;;;;23.50;18.75;;;;;16.84;71.22;101829.34;4846340;29;45690;-82
2023/05/23 11:25:57;;;;;;;;;20.75;19.50;;;;;16.86;70.71;101824.78;4846292;29;45324;-82
2023/05/23 11:28:22;;;;;;;;;23.50;21.00;;;;;16.75;70.07;101803.63;4838936;29;45720;-82
2023/05/23 11:30:48;;;;;;;;;23.50;23.25;;;;;16.83;70.39;101822.19;4842472;29;45937;-82
2023/05/23 11:33:15;;;;;;;;;21.75;21.50;;;;;16.74;70.20;101809.97;4847162;29;45266;-82
2023/05/23 11:35:41;;;;;;;;;25.25;23.25;;;;;16.80;70.05;101820.47;4847686;29;45941;-82
2023/05/23 11:38:06;;;;;;;;;28.25;27.75;;;;;16.76;69.90;101812.59;4860098;29;45614;-84
2023/05/23 11:40:39;;;;;;;;;18.50;18.50;;;;;16.83;69.84;101823.06;4846315;29;45400;-84
2023/05/23 11:43:07;;;;;;;;;23.00;20.00;;;;;16.83;69.78;101824.88;4844379;29;45399;-81
2023/05/23 11:45:35;;;;;;;;;24.50;21.75;;;;;16.85;69.45;101818.50;4860801;29;46477;-82
2023/05/23 11:48:11;;;;;;;;;20.25;20.00;;;;;16.79;69.36;101805.25;4840966;29;45879;-81
2023/05/23 11:51:03;;;;;;;;;24.75;23.75;;;;;16.90;68.98;101820.16;4844559;29;46133;-82
2023/05/23 11:53:29;;;;;;;;;28.00;20.00;;;;;16.82;68.91;101799.75;4844337;29;45429;-82
2023/05/23 11:56:00;;;;;;;;;23.00;19.00;;;;;16.95;68.36;101815.44;4839936;29;46427;-81
2023/05/23 11:58:30;;;;;;;;;22.50;22.50;;;;;16.96;67.99;101815.38;4845963;29;45442;-81
2023/05/23 12:01:03;;;;;;;;;19.75;19.00;;;;;16.96;68.38;101812.66;4843571;29;45351;-82
2023/05/23 12:03:29;;;;;;;;;25.00;22.75;;;;;16.88;68.29;101785.16;4845751;29;45579;-82
2023/05/23 12:05:55;;;;;;;;;24.75;21.50;;;;;17.07;67.54;101805.94;4849513;29;48266;-82
2023/05/23 12:08:20;;;;;;;;;18.50;17.00;;;;;17.07;67.79;101801.41;4846731;29;45524;-82
2023/05/23 12:10:51;;;;;;;;;21.00;18.25;;;;;17.15;67.53;101801.09;4842829;29;45687;-82
2023/05/23 12:13:17;;;;;;;;;23.75;20.50;;;;;17.19;67.19;101797.31;4842398;29;45363;-82
2023/05/23 12:15:43;;;;;;;;;19.25;18.75;;;;;17.30;66.40;101795.03;4855997;29;47185;-82
2023/05/23 12:18:08;;;;;;;;;21.50;18.50;;;;;17.35;66.85;101798.41;4833478;29;45427;-85
2023/05/23 12:20:35;;;;;;;;;22.75;21.25;;;;;17.41;66.37;101795.44;4844893;29;45327;-85
2023/05/23 12:23:03;;;;;;;;;22.00;20.50;;;;;17.48;66.61;101793.34;4839974;29;45392;-84
2023/05/23 12:25:29;;;;;;;;;20.25;20.25;;;;;17.52;66.75;101796.78;4841650;29;46620;-85
2023/05/23 12:27:55;;;;;;;;;16.25;15.50;;;;;17.62;66.67;101797.25;4846801;29;45477;-84
2023/05/23 12:30:21;;;;;;;;;21.75;19.25;;;;;17.68;66.28;101803.25;4848827;29;45498;-83